Haskell, NJ (07420)

2:26 PM EDT on August 20, 2014 (GMT -0400)
Greenwood Avenue | Change Station
CLOSE
Current Station
Personal Weather Station
Location: Haskell, NJ
Elevation: 250 ft
Nearby Weather Stations

Elev 250 ft 41.02 °N, 74.30 °W | Updated 6 seconds ago

Scattered Clouds
Scattered Clouds
84.9 °F
Feels Like 86 °F
N
0.0
Wind Variable Wind from North
Gusts 1.0 mph

Today
High -- | Low -- °F
--% Chance of Precip.
Yesterday
High -- | Low -- °F
Precip. -- in
6:11 AM 7:48 PM
Waning Crescent, 20% visible
Pressure 29.99 in
Visibility 10.0 miles
Clouds Scattered Clouds 4400 ft
Heat Index 86 °F
Dew Point 64 °F
Humidity 50%
Rainfall 0.00 in
Snow Depth Not available.
UV 6.0 out of 12
Pollen 9.70 out of 12
Air Quality Not available.
Flu Activity Not available.
METAR KCDW 201753Z 00000KT 10SM SCT044 28/16 A2998 RMK AO2 SLP155 T02780161 10283 20206 58014

More Conditions Fewer Conditions

Pressure 29.99 in
Visibility 10.0 miles
Clouds Scattered Clouds 4400 ft
Heat Index 86 °F
Dew Point 64 °F
Humidity 50%
Rainfall 0.00 in
Snow Depth Not available.
UV 6.0 out of 12
Pollen 9.70 out of 12
Air Quality Not available.
Flu Activity Not available.
METAR KCDW 201753Z 00000KT 10SM SCT044 28/16 A2998 RMK AO2 SLP155 T02780161 10283 20206 58014

More Conditions Fewer Conditions

10-Day Weather Forecast

Almanac

Astronomy

Aug. 20, 2014 Rise Set
Actual Time 6:11 AM EDT 7:48 PM EDT
Civil Twilight 5:42 AM EDT 8:17 PM EDT
Nautical Twilight 5:07 AM EDT 8:52 PM EDT
Astronomical Twilight 4:29 AM EDT 9:29 PM EDT
Moon 1:48 AM EDT 4:32 PM EDT
Length of Visible Light 14h 34m
Length of Day
13h 36m
Tomorrow will be 2m 29s shorter.
Waning Crescent, 20% of the Moon is Illuminated
Today
Waning Crescent
Aug 25
New
Sep 2
First Quarter
Sep 8
Full
Sep 15
Last Quarter

Today's Extremes

State Highs State Lows

Community

WunderPhotos

Upload Photos

1,745,704 photos uploaded!

WunderBlogs® & News

Nearby

Snow Depth

Station Depth Elevation
No new snow has been reported.

Earthquake Activity

City Distance Mag. Time & Date
Deep River Center, Connecticut 96 miles 2.7 3:09 AM EDT
2014-08-14
Minimum magnitude displayed is 2.5.

Coastal Water Temperatures

Place Temperature
Sandy Hook, NJ 73.9 °F
The Battery, NY 73.9 °F
Bergen Point West Reach, NJ 73.9 °F

Nearby Weather Stations